createdAt,value
2018-11-14T00:00:50.126Z,6.86
2018-11-14T00:03:19.849Z,6.85
2018-11-14T00:05:49.580Z,6.81
2018-11-14T00:08:18.226Z,6.80
2018-11-14T00:10:47.633Z,6.80
2018-11-14T00:13:17.011Z,6.77
2018-11-14T00:15:46.196Z,6.72
2018-11-14T00:18:15.209Z,6.79
2018-11-14T00:20:45.152Z,6.76
2018-11-14T00:23:15.251Z,6.75
2018-11-14T00:25:45.936Z,6.69
2018-11-14T00:28:17.237Z,6.65
2018-11-14T00:30:49.563Z,6.75
2018-11-14T00:33:21.296Z,6.68
2018-11-14T00:35:51.333Z,6.60
2018-11-14T00:38:22.235Z,6.65
2018-11-14T00:40:53.565Z,6.65
2018-11-14T00:43:22.675Z,6.65
2018-11-14T00:45:55.232Z,6.59
2018-11-14T00:48:29.541Z,6.58
2018-11-14T00:50:59.144Z,6.56
2018-11-14T00:53:29.536Z,6.57
2018-11-14T00:55:58.116Z,6.58
2018-11-14T00:58:27.678Z,6.57
2018-11-14T01:00:56.293Z,6.55
2018-11-14T01:03:24.848Z,6.51
2018-11-14T01:05:54.425Z,6.42
2018-11-14T01:08:23.943Z,6.41
2018-11-14T01:10:53.401Z,6.27
2018-11-14T01:13:22.187Z,6.29
2018-11-14T01:15:54.276Z,6.28
2018-11-14T01:18:28.106Z,6.27
2018-11-14T01:20:58.070Z,6.27
2018-11-14T01:23:28.517Z,6.26
2018-11-14T01:26:03.285Z,6.29
2018-11-14T01:28:36.495Z,6.34
2018-11-14T01:31:11.218Z,6.27
2018-11-14T01:33:46.355Z,6.24
2018-11-14T01:36:21.637Z,6.27
2018-11-14T01:38:54.279Z,6.27
2018-11-14T01:41:27.063Z,6.26
2018-11-14T01:43:58.036Z,6.19
2018-11-14T01:46:28.522Z,6.25
2018-11-14T01:48:57.119Z,6.23
2018-11-14T01:51:26.564Z,6.22
2018-11-14T01:53:56.168Z,6.16
2018-11-14T01:56:24.695Z,6.24
2018-11-14T01:58:54.243Z,6.24
2018-11-14T02:01:22.793Z,6.24
2018-11-14T02:03:52.256Z,6.30
2018-11-14T02:06:20.993Z,6.24
2018-11-14T02:08:51.074Z,6.23
2018-11-14T02:11:21.639Z,6.11
2018-11-14T02:13:51.797Z,6.12
2018-11-14T02:16:23.639Z,6.20
2018-11-14T02:18:57.094Z,6.23
2018-11-14T02:21:31.046Z,6.22
2018-11-14T02:24:05.110Z,6.27
2018-11-14T02:26:41.174Z,6.26
2018-11-14T02:29:13.289Z,6.29
2018-11-14T02:31:47.458Z,6.25
2018-11-14T02:34:18.479Z,6.19
2018-11-14T02:36:58.348Z,6.24
2018-11-14T02:39:30.594Z,6.18
2018-11-14T02:42:01.373Z,6.14
2018-11-14T02:44:33.037Z,6.06
2018-11-14T02:47:03.175Z,6.04
2018-11-14T02:49:31.734Z,6.19
2018-11-14T02:52:01.186Z,6.08
2018-11-14T02:54:30.637Z,6.11
2018-11-14T02:57:00.101Z,6.14
2018-11-14T02:59:29.579Z,6.15
2018-11-14T03:01:59.039Z,6.13
2018-11-14T03:04:30.588Z,6.11
2018-11-14T03:07:01.032Z,6.12
2018-11-14T03:09:33.941Z,6.19
2018-11-14T03:12:04.661Z,6.11
2018-11-14T03:14:39.459Z,6.10
2018-11-14T03:17:15.938Z,6.08
2018-11-14T03:19:49.065Z,6.09
2018-11-14T03:22:21.451Z,6.05
2018-11-14T03:24:52.777Z,6.07
2018-11-14T03:27:25.206Z,6.05
2018-11-14T03:29:54.690Z,6.06
2018-11-14T03:32:23.248Z,6.06
2018-11-14T03:34:52.333Z,5.96
2018-11-14T03:37:21.821Z,5.87
2018-11-14T03:39:51.293Z,5.76
2018-11-14T03:42:19.955Z,5.77
2018-11-14T03:44:49.473Z,5.73
2018-11-14T03:47:18.042Z,5.77
2018-11-14T03:49:49.480Z,5.83
2018-11-14T03:52:19.221Z,5.83
2018-11-14T03:54:51.042Z,5.78
2018-11-14T03:57:24.975Z,5.89
2018-11-14T03:59:54.522Z,5.82
2018-11-14T04:02:24.904Z,5.72
2018-11-14T04:05:00.901Z,5.81
2018-11-14T04:07:34.622Z,5.70
2018-11-14T04:10:08.811Z,5.75
2018-11-14T04:12:56.316Z,5.72
2018-11-14T04:15:30.638Z,5.65
2018-11-14T04:18:00.634Z,5.59
2018-11-14T04:20:29.199Z,5.64
2018-11-14T04:22:58.665Z,5.56
2018-11-14T04:25:28.096Z,5.57
2018-11-14T04:27:56.678Z,5.52
2018-11-14T04:30:25.446Z,5.48
2018-11-14T04:32:53.996Z,5.48
2018-11-14T04:35:23.838Z,5.49
2018-11-14T04:37:52.447Z,5.49
2018-11-14T04:40:24.487Z,5.50
2018-11-14T04:42:54.119Z,5.52
2018-11-14T04:45:24.145Z,5.47
2018-11-14T04:47:52.828Z,5.41
2018-11-14T04:50:25.946Z,5.37
2018-11-14T04:52:55.856Z,5.34
2018-11-14T04:55:26.470Z,5.28
2018-11-14T04:57:56.084Z,5.36
2018-11-14T05:00:26.593Z,5.29
2018-11-14T05:02:56.055Z,5.28
2018-11-14T05:05:25.377Z,5.26
2018-11-14T05:07:53.989Z,5.25
2018-11-14T05:10:24.687Z,5.27
2018-11-14T05:12:53.509Z,5.21
2018-11-14T05:15:24.166Z,5.22
2018-11-14T05:17:53.092Z,5.19
2018-11-14T05:20:23.099Z,5.18
2018-11-14T05:22:52.955Z,5.19
2018-11-14T05:25:22.456Z,5.32
2018-11-14T05:27:51.937Z,5.34
2018-11-14T05:30:22.417Z,5.30
2018-11-14T05:32:52.447Z,5.26
2018-11-14T05:35:21.079Z,5.25
2018-11-14T05:37:51.079Z,5.37
2018-11-14T05:40:21.855Z,5.34
2018-11-14T05:42:51.067Z,5.31
2018-11-14T05:45:22.713Z,5.38
2018-11-14T05:47:51.345Z,5.41
2018-11-14T05:50:21.834Z,5.35
2018-11-14T05:52:50.535Z,5.26
2018-11-14T05:55:19.989Z,5.31
2018-11-14T05:57:48.676Z,5.22
2018-11-14T06:00:34.592Z,5.21
2018-11-14T06:03:04.151Z,5.33
2018-11-14T06:05:33.687Z,5.36
2018-11-14T06:08:02.294Z,5.25
2018-11-14T06:10:31.894Z,5.29
2018-11-14T06:13:00.448Z,5.21
2018-11-14T06:15:30.036Z,5.17
2018-11-14T06:17:59.266Z,5.19
2018-11-14T06:20:28.770Z,5.26
2018-11-14T06:22:58.474Z,5.26
2018-11-14T06:25:32.925Z,5.21
2018-11-14T06:28:03.590Z,5.25
2018-11-14T06:30:32.762Z,5.31
2018-11-14T06:33:01.950Z,5.33
2018-11-14T06:35:30.535Z,5.33
2018-11-14T06:37:59.100Z,5.25
2018-11-14T06:40:27.631Z,5.38
2018-11-14T06:42:56.188Z,5.35
2018-11-14T06:45:25.942Z,5.35
2018-11-14T06:47:55.783Z,5.33
2018-11-14T06:50:24.493Z,5.32
2018-11-14T06:52:54.422Z,5.34
2018-11-14T06:55:24.021Z,5.41
2018-11-14T06:57:52.633Z,5.46
2018-11-14T07:00:29.929Z,5.49
2018-11-14T07:03:00.461Z,5.49
2018-11-14T07:05:29.187Z,5.52
2018-11-14T07:07:58.729Z,5.60
2018-11-14T07:10:30.349Z,5.55
2018-11-14T07:13:05.739Z,5.54
2018-11-14T07:15:36.119Z,5.53
2018-11-14T07:18:04.814Z,5.55
2018-11-14T07:20:36.845Z,5.57
2018-11-14T07:23:06.630Z,5.66
2018-11-14T07:25:35.236Z,5.68
2018-11-14T07:28:05.045Z,5.74
2018-11-14T07:30:36.110Z,5.86
2018-11-14T07:33:08.932Z,5.82
2018-11-14T07:35:37.578Z,5.81
2018-11-14T07:38:40.233Z,5.84
2018-11-14T07:41:11.401Z,5.97
2018-11-14T07:43:41.317Z,5.99
2018-11-14T07:46:10.603Z,6.04
2018-11-14T07:48:39.539Z,6.09
2018-11-14T07:51:08.226Z,6.17
2018-11-14T07:53:36.792Z,6.17
2018-11-14T07:56:06.380Z,6.30
2018-11-14T07:58:34.925Z,6.38
2018-11-14T08:01:03.523Z,6.46
2018-11-14T08:03:33.177Z,6.48
2018-11-14T08:06:01.800Z,6.52
2018-11-14T08:08:30.495Z,6.47
2018-11-14T08:10:59.086Z,6.48
2018-11-14T08:13:28.735Z,6.60
2018-11-14T08:15:58.592Z,6.60
2018-11-14T08:18:27.361Z,6.66
2018-11-14T08:20:56.539Z,6.76
2018-11-14T08:23:25.105Z,6.77
2018-11-14T08:25:53.708Z,6.79
2018-11-14T08:28:22.305Z,6.88
2018-11-14T08:30:50.863Z,6.94
2018-11-14T08:33:19.484Z,6.97
2018-11-14T08:35:48.072Z,7.01
2018-11-14T08:38:16.776Z,7.06
2018-11-14T08:40:46.122Z,7.17
2018-11-14T08:43:15.491Z,7.17
2018-11-14T08:45:45.559Z,7.23
2018-11-14T08:48:14.506Z,7.27
2018-11-14T08:50:44.271Z,7.31
2018-11-14T08:53:13.722Z,7.32
2018-11-14T08:55:42.242Z,7.34
2018-11-14T08:58:11.954Z,7.43
2018-11-14T09:00:40.518Z,7.49
2018-11-14T09:03:10.504Z,7.48
2018-11-14T09:05:39.419Z,7.52
2018-11-14T09:08:08.038Z,7.55
2018-11-14T09:10:36.600Z,7.61
2018-11-14T09:13:05.359Z,7.58
2018-11-14T09:15:33.892Z,7.63
2018-11-14T09:18:02.513Z,7.69
2018-11-14T09:20:31.080Z,7.76
2018-11-14T09:22:59.654Z,7.73
2018-11-14T09:25:29.956Z,7.87
2018-11-14T09:27:59.355Z,8.09
2018-11-14T09:30:28.109Z,8.28
2018-11-14T09:32:57.218Z,8.37
2018-11-14T09:35:26.632Z,8.42
2018-11-14T09:37:56.503Z,8.65
2018-11-14T09:40:26.361Z,8.74
2018-11-14T09:42:54.922Z,8.86
2018-11-14T09:45:24.908Z,9.01
2018-11-14T09:47:53.481Z,9.08
2018-11-14T09:50:26.328Z,9.13
2018-11-14T09:52:59.233Z,8.93
2018-11-14T09:55:27.877Z,8.83
2018-11-14T09:57:56.455Z,8.89
2018-11-14T10:00:28.156Z,9.00
2018-11-14T10:03:00.660Z,8.96
2018-11-14T10:05:29.222Z,9.10
2018-11-14T10:07:57.906Z,9.23
2018-11-14T10:10:26.439Z,9.27
2018-11-14T10:12:55.875Z,9.23
2018-11-14T10:15:24.979Z,9.22
2018-11-14T10:17:53.587Z,9.40
2018-11-14T10:20:24.194Z,9.37
2018-11-14T10:22:53.818Z,9.47
2018-11-14T10:25:22.379Z,9.59
2018-11-14T10:27:51.371Z,9.68
2018-11-14T10:30:22.323Z,9.68
2018-11-14T10:32:51.306Z,9.79
2018-11-14T10:35:19.887Z,9.82
2018-11-14T10:37:49.596Z,9.87
2018-11-14T10:40:20.701Z,10.03
2018-11-14T10:42:50.175Z,9.94
2018-11-14T10:45:20.931Z,9.96
2018-11-14T10:47:49.560Z,10.10
2018-11-14T10:50:20.356Z,10.03
2018-11-14T10:52:48.994Z,9.97
2018-11-14T10:55:19.192Z,9.95
2018-11-14T10:57:47.836Z,10.11
2018-11-14T11:00:28.594Z,10.19
2018-11-14T11:03:02.918Z,10.20
2018-11-14T11:05:37.869Z,10.12
2018-11-14T11:08:12.601Z,10.15
2018-11-14T11:11:19.474Z,10.35
2018-11-14T11:14:05.201Z,10.62
2018-11-14T11:16:33.841Z,10.77
2018-11-14T11:19:02.651Z,10.86
2018-11-14T11:21:31.249Z,10.69
2018-11-14T11:24:00.894Z,10.85
2018-11-14T11:26:30.404Z,11.01
2018-11-14T11:28:58.972Z,10.95
2018-11-14T11:31:28.555Z,10.80
2018-11-14T11:33:57.149Z,10.52
2018-11-14T11:36:25.722Z,10.81
2018-11-14T11:38:54.259Z,10.96
2018-11-14T11:41:23.075Z,10.79
2018-11-14T11:43:51.964Z,10.88
2018-11-14T11:46:20.552Z,11.15
2018-11-14T11:48:49.114Z,11.46
2018-11-14T11:51:17.662Z,11.65
2018-11-14T11:53:47.298Z,11.67
2018-11-14T11:56:16.703Z,11.73
2018-11-14T11:58:46.129Z,11.68
2018-11-14T12:01:14.895Z,11.78
2018-11-14T12:03:44.176Z,11.92
2018-11-14T12:06:14.150Z,11.88
2018-11-14T12:08:42.672Z,12.10
2018-11-14T12:11:11.227Z,11.87
2018-11-14T12:13:39.979Z,12.00
2018-11-14T12:16:15.955Z,11.83
2018-11-14T12:18:46.065Z,11.54
2018-11-14T12:21:16.472Z,11.86
2018-11-14T12:23:46.635Z,12.07
2018-11-14T12:26:17.218Z,12.19
2018-11-14T12:28:46.633Z,12.22
2018-11-14T12:31:16.430Z,12.22
2018-11-14T12:33:46.538Z,12.28
2018-11-14T12:36:16.230Z,12.44
2018-11-14T12:38:46.437Z,12.06
2018-11-14T12:41:16.622Z,12.15
2018-11-14T12:43:46.878Z,12.62
2018-11-14T12:46:17.751Z,12.79
2018-11-14T12:48:47.613Z,12.58
2018-11-14T12:51:17.199Z,12.81
2018-11-14T12:53:46.643Z,13.14
2018-11-14T12:56:17.325Z,13.29
2018-11-14T12:58:46.767Z,12.90
2018-11-14T13:01:16.054Z,13.15
2018-11-14T13:03:46.485Z,13.09
2018-11-14T13:06:15.740Z,13.03
2018-11-14T13:08:45.739Z,12.70
2018-11-14T13:11:14.308Z,12.64
2018-11-14T13:13:45.814Z,12.82
2018-11-14T13:16:15.475Z,12.54
2018-11-14T13:18:44.396Z,12.59
2018-11-14T13:21:13.687Z,12.60
2018-11-14T13:23:44.477Z,12.75
2018-11-14T13:26:13.206Z,12.71
2018-11-14T13:28:42.701Z,12.64
2018-11-14T13:31:11.273Z,12.59
2018-11-14T13:33:40.723Z,12.83
2018-11-14T13:36:09.252Z,13.00
2018-11-14T13:38:38.779Z,12.92
2018-11-14T13:41:07.681Z,13.15
2018-11-14T13:43:36.253Z,13.27
2018-11-14T13:46:05.031Z,13.08
2018-11-14T13:48:33.565Z,12.99
2018-11-14T13:51:02.235Z,12.93
2018-11-14T13:53:30.752Z,12.89
2018-11-14T13:55:59.299Z,12.92
2018-11-14T13:58:27.841Z,12.95
2018-11-14T14:00:56.375Z,12.82
2018-11-14T14:03:24.873Z,12.84
2018-11-14T14:05:53.421Z,12.80
2018-11-14T14:08:21.988Z,12.55
2018-11-14T14:10:50.510Z,12.16
2018-11-14T14:13:19.057Z,12.05
2018-11-14T14:15:47.583Z,11.50
2018-11-14T14:18:17.195Z,11.38
2018-11-14T14:20:46.829Z,11.35
2018-11-14T14:23:16.455Z,11.40
2018-11-14T14:25:45.637Z,11.26
2018-11-14T14:28:14.526Z,11.26
2018-11-14T14:30:43.462Z,11.28
2018-11-14T14:33:12.001Z,11.26
2018-11-14T14:35:40.531Z,10.97
2018-11-14T14:38:09.133Z,10.87
2018-11-14T14:40:37.673Z,10.79
2018-11-14T14:43:06.323Z,10.64
2018-11-14T14:45:34.834Z,10.45
2018-11-14T14:48:03.424Z,10.29
2018-11-14T14:50:31.961Z,10.08
2018-11-14T14:53:00.527Z,9.92
2018-11-14T14:55:29.078Z,9.79
2018-11-14T14:57:57.633Z,9.63
2018-11-14T15:00:27.447Z,9.56
2018-11-14T15:02:56.037Z,9.55
2018-11-14T15:05:25.429Z,9.38
2018-11-14T15:07:53.968Z,9.21
2018-11-14T15:10:23.623Z,9.07
2018-11-14T15:12:52.236Z,8.96
2018-11-14T15:15:21.108Z,8.80
2018-11-14T15:17:49.655Z,8.71
2018-11-14T15:20:19.930Z,8.59
2018-11-14T15:22:48.642Z,8.49
2018-11-14T15:25:18.681Z,8.40
2018-11-14T15:27:47.833Z,8.28
2018-11-14T15:30:19.878Z,8.18
2018-11-14T15:32:48.448Z,8.05
2018-11-14T15:35:16.998Z,7.99
2018-11-14T15:37:46.622Z,7.91
2018-11-14T15:40:17.209Z,7.79
2018-11-14T15:42:46.725Z,7.70
2018-11-14T15:45:17.973Z,7.61
2018-11-14T15:47:46.566Z,7.57
2018-11-14T15:50:19.189Z,7.53
2018-11-14T15:52:48.657Z,7.63
2018-11-14T15:55:18.282Z,7.74
2018-11-14T15:57:46.937Z,7.78
2018-11-14T16:00:22.799Z,7.60
2018-11-14T16:02:52.245Z,7.48
2018-11-14T16:05:22.831Z,7.66
2018-11-14T16:07:52.790Z,7.73
2018-11-14T16:10:23.324Z,7.62
2018-11-14T16:12:51.890Z,7.59
2018-11-14T16:15:22.851Z,7.51
2018-11-14T16:17:51.479Z,7.27
2018-11-14T16:20:22.464Z,7.12
2018-11-14T16:22:51.140Z,7.01
2018-11-14T16:25:21.850Z,6.86
2018-11-14T16:27:52.532Z,6.77
2018-11-14T16:30:25.284Z,6.75
2018-11-14T16:32:55.058Z,6.88
2018-11-14T16:35:23.642Z,6.94
2018-11-14T16:37:53.117Z,6.94
2018-11-14T16:40:25.037Z,6.90
2018-11-14T16:42:55.343Z,6.78
2018-11-14T16:45:26.108Z,6.65
2018-11-14T16:47:55.665Z,6.68
2018-11-14T16:50:25.525Z,6.63
2018-11-14T16:52:55.017Z,6.65
2018-11-14T16:55:24.841Z,6.78
2018-11-14T16:57:55.366Z,6.73
2018-11-14T17:00:25.435Z,6.70
2018-11-14T17:02:53.991Z,6.79
2018-11-14T17:05:24.448Z,6.75
2018-11-14T17:07:54.246Z,6.75
2018-11-14T17:10:24.017Z,6.71
2018-11-14T17:12:55.057Z,6.71
2018-11-14T17:15:25.779Z,6.70
2018-11-14T17:17:55.207Z,6.75
2018-11-14T17:20:24.777Z,6.79
2018-11-14T17:22:55.116Z,6.98
2018-11-14T17:25:24.571Z,7.08
2018-11-14T17:27:53.143Z,7.12
2018-11-14T17:30:24.634Z,7.13
2018-11-14T17:32:53.717Z,7.16
2018-11-14T17:35:23.244Z,7.14
2018-11-14T17:37:51.847Z,7.11
2018-11-14T17:40:23.646Z,7.18
2018-11-14T17:42:53.359Z,6.94
2018-11-14T17:45:25.038Z,6.78
2018-11-14T17:47:54.135Z,6.82
2018-11-14T17:50:27.117Z,6.78
2018-11-14T17:52:57.703Z,6.70
2018-11-14T17:55:27.491Z,6.60
2018-11-14T17:57:57.028Z,6.55
2018-11-14T18:00:31.493Z,6.43
2018-11-14T18:03:00.194Z,6.38
2018-11-14T18:05:30.922Z,6.32
2018-11-14T18:07:59.512Z,6.34
2018-11-14T18:10:29.314Z,6.32
2018-11-14T18:12:58.991Z,6.27
2018-11-14T18:15:27.576Z,6.27
2018-11-14T18:17:59.058Z,6.38
2018-11-14T18:20:29.445Z,6.41
2018-11-14T18:22:58.171Z,6.38
2018-11-14T18:25:28.043Z,6.34
2018-11-14T18:27:56.751Z,6.19
2018-11-14T18:30:27.470Z,6.09
2018-11-14T18:32:56.869Z,6.10
2018-11-14T18:35:26.106Z,6.14
2018-11-14T18:37:55.688Z,6.10
2018-11-14T18:40:25.582Z,6.15
2018-11-14T18:42:54.148Z,6.16
2018-11-14T18:45:25.281Z,6.19
2018-11-14T18:47:55.344Z,6.10
2018-11-14T18:50:26.538Z,6.06
2018-11-14T18:52:55.167Z,6.11
2018-11-14T18:55:26.014Z,6.11
2018-11-14T18:57:54.719Z,6.00
2018-11-14T19:00:25.800Z,5.95
2018-11-14T19:02:54.381Z,5.90
2018-11-14T19:05:22.983Z,5.89
2018-11-14T19:07:52.713Z,5.85
2018-11-14T19:10:26.691Z,5.89
2018-11-14T19:12:56.265Z,5.86
2018-11-14T19:15:40.190Z,5.80
2018-11-14T19:18:08.834Z,5.78
2018-11-14T19:20:37.393Z,5.71
2018-11-14T19:23:06.756Z,5.68
2018-11-14T19:25:36.425Z,5.62
2018-11-14T19:28:05.355Z,5.59
2018-11-14T19:30:35.436Z,5.55
2018-11-14T19:33:04.616Z,5.58
2018-11-14T19:35:33.380Z,5.69
2018-11-14T19:38:02.228Z,5.65
2018-11-14T19:40:33.001Z,5.62
2018-11-14T19:43:02.709Z,5.60
2018-11-14T19:45:33.699Z,5.58
2018-11-14T19:48:02.301Z,5.65
2018-11-14T19:50:30.909Z,5.75
2018-11-14T19:52:59.606Z,5.70
2018-11-14T19:55:29.365Z,5.68
2018-11-14T19:57:59.405Z,5.73
2018-11-14T20:00:30.414Z,5.75
2018-11-14T20:02:59.047Z,5.77
2018-11-14T20:05:27.624Z,5.85
2018-11-14T20:07:56.263Z,5.88
2018-11-14T20:10:26.254Z,5.90
2018-11-14T20:12:55.152Z,5.87
2018-11-14T20:15:25.114Z,5.85
2018-11-14T20:17:53.837Z,5.92
2018-11-14T20:20:23.971Z,5.94
2018-11-14T20:22:53.354Z,5.87
2018-11-14T20:25:21.941Z,5.96
2018-11-14T20:27:50.542Z,5.83
2018-11-14T20:30:21.978Z,5.76
2018-11-14T20:32:52.086Z,5.72
2018-11-14T20:35:22.471Z,5.70
2018-11-14T20:37:50.999Z,5.75
2018-11-14T20:40:20.736Z,5.69
2018-11-14T20:42:50.692Z,5.66
2018-11-14T20:45:28.023Z,5.64
2018-11-14T20:47:56.662Z,5.62
2018-11-14T20:50:26.105Z,5.62
2018-11-14T20:52:56.733Z,5.65
2018-11-14T20:55:25.335Z,5.64
2018-11-14T20:57:53.909Z,5.65
2018-11-14T21:00:26.710Z,5.62
2018-11-14T21:02:56.394Z,5.62
2018-11-14T21:05:25.490Z,5.57
2018-11-14T21:07:54.315Z,5.66
2018-11-14T21:10:24.364Z,5.56
2018-11-14T21:12:53.423Z,5.52
2018-11-14T21:15:24.823Z,5.51
2018-11-14T21:17:54.225Z,5.45
2018-11-14T21:20:23.906Z,5.43
2018-11-14T21:22:52.506Z,5.44
2018-11-14T21:25:22.946Z,5.41
2018-11-14T21:27:52.144Z,5.38
2018-11-14T21:30:22.784Z,5.37
2018-11-14T21:32:51.378Z,5.33
2018-11-14T21:35:22.893Z,5.37
2018-11-14T21:37:53.751Z,5.38
2018-11-14T21:40:23.331Z,5.40
2018-11-14T21:42:51.939Z,5.43
2018-11-14T21:45:22.903Z,5.50
2018-11-14T21:47:56.669Z,5.56
2018-11-14T21:50:27.452Z,5.66
2018-11-14T21:52:57.114Z,5.67
2018-11-14T21:55:25.934Z,5.62
2018-11-14T21:57:55.415Z,5.59
2018-11-14T22:00:26.353Z,5.53
2018-11-14T22:02:56.390Z,5.47
2018-11-14T22:05:24.970Z,5.43
2018-11-14T22:07:53.620Z,5.48
2018-11-14T22:10:23.311Z,5.67
2018-11-14T22:12:52.374Z,5.65
2018-11-14T22:15:23.198Z,5.63
2018-11-14T22:17:51.816Z,5.63
2018-11-14T22:20:22.689Z,5.62
2018-11-14T22:22:51.354Z,5.55
2018-11-14T22:25:23.089Z,5.50
2018-11-14T22:27:52.718Z,5.48
2018-11-14T22:30:24.601Z,5.48
2018-11-14T22:32:53.233Z,5.49
2018-11-14T22:35:24.025Z,5.53
2018-11-14T22:37:53.517Z,5.63
2018-11-14T22:40:31.453Z,5.65
2018-11-14T22:43:00.096Z,5.66
2018-11-14T22:45:30.107Z,5.77
2018-11-14T22:47:58.717Z,5.71
2018-11-14T22:50:28.391Z,5.67
2018-11-14T22:52:57.016Z,5.63
2018-11-14T22:55:26.277Z,5.55
2018-11-14T22:57:55.122Z,5.52
2018-11-14T23:00:31.370Z,5.47
2018-11-14T23:03:01.394Z,5.46
2018-11-14T23:05:30.132Z,5.56
2018-11-14T23:07:59.425Z,5.50
2018-11-14T23:10:29.226Z,5.51
2018-11-14T23:12:58.776Z,5.55
2018-11-14T23:15:27.442Z,5.64
2018-11-14T23:17:56.932Z,5.63
2018-11-14T23:20:25.525Z,5.64
2018-11-14T23:22:54.593Z,5.75
2018-11-14T23:25:23.536Z,5.71
2018-11-14T23:27:53.261Z,5.73
2018-11-14T23:30:22.992Z,5.70
2018-11-14T23:32:52.497Z,5.69
2018-11-14T23:35:35.623Z,5.62
2018-11-14T23:38:05.400Z,5.43
2018-11-14T23:40:34.074Z,5.43
2018-11-14T23:43:02.660Z,5.30
2018-11-14T23:45:31.916Z,5.31
2018-11-14T23:48:01.347Z,5.36
2018-11-14T23:50:31.908Z,5.37
2018-11-14T23:53:01.410Z,5.43
2018-11-14T23:55:30.774Z,5.43
2018-11-14T23:57:59.653Z,5.36
